sensor_id;sensor_type;location;lat;lon;timestamp;temperature;humidity
13093;DHT22;6612;49.568;11.000;2023-10-13T00:01:03;19.60;74.30
13093;DHT22;6612;49.568;11.000;2023-10-13T00:03:32;19.70;74.30
13093;DHT22;6612;49.568;11.000;2023-10-13T00:05:59;19.70;74.20
13093;DHT22;6612;49.568;11.000;2023-10-13T00:08:28;19.60;74.10
13093;DHT22;6612;49.568;11.000;2023-10-13T00:10:56;19.60;74.00
13093;DHT22;6612;49.568;11.000;2023-10-13T00:13:26;19.60;74.00
13093;DHT22;6612;49.568;11.000;2023-10-13T00:15:55;19.60;74.10
13093;DHT22;6612;49.568;11.000;2023-10-13T00:18:24;19.60;74.20
13093;DHT22;6612;49.568;11.000;2023-10-13T00:20:52;19.60;74.00
13093;DHT22;6612;49.568;11.000;2023-10-13T00:23:22;19.60;74.00
13093;DHT22;6612;49.568;11.000;2023-10-13T00:25:52;19.60;74.00
13093;DHT22;6612;49.568;11.000;2023-10-13T00:28:28;19.60;74.00
13093;DHT22;6612;49.568;11.000;2023-10-13T00:31:02;19.60;74.00
13093;DHT22;6612;49.568;11.000;2023-10-13T00:33:36;19.60;73.90
13093;DHT22;6612;49.568;11.000;2023-10-13T00:36:03;19.60;73.80
13093;DHT22;6612;49.568;11.000;2023-10-13T00:38:31;19.60;73.80
13093;DHT22;6612;49.568;11.000;2023-10-13T00:40:58;19.50;74.60
13093;DHT22;6612;49.568;11.000;2023-10-13T00:43:31;19.50;73.90
13093;DHT22;6612;49.568;11.000;2023-10-13T00:46:00;19.50;74.00
13093;DHT22;6612;49.568;11.000;2023-10-13T00:48:36;19.50;74.20
13093;DHT22;6612;49.568;11.000;2023-10-13T00:51:11;19.50;74.30
13093;DHT22;6612;49.568;11.000;2023-10-13T00:53:44;19.50;74.20
13093;DHT22;6612;49.568;11.000;2023-10-13T00:56:14;19.40;74.10
13093;DHT22;6612;49.568;11.000;2023-10-13T00:58:48;19.40;74.20
13093;DHT22;6612;49.568;11.000;2023-10-13T01:01:18;19.40;74.20
13093;DHT22;6612;49.568;11.000;2023-10-13T01:03:46;19.40;74.10
13093;DHT22;6612;49.568;11.000;2023-10-13T01:06:18;19.40;74.30
13093;DHT22;6612;49.568;11.000;2023-10-13T01:08:46;19.40;74.30
13093;DHT22;6612;49.568;11.000;2023-10-13T01:11:17;19.40;74.20
13093;DHT22;6612;49.568;11.000;2023-10-13T01:13:44;19.40;74.20
13093;DHT22;6612;49.568;11.000;2023-10-13T01:16:12;19.40;74.10
13093;DHT22;6612;49.568;11.000;2023-10-13T01:18:38;19.30;74.00
13093;DHT22;6612;49.568;11.000;2023-10-13T01:21:15;19.30;74.00
13093;DHT22;6612;49.568;11.000;2023-10-13T01:23:44;19.30;74.30
13093;DHT22;6612;49.568;11.000;2023-10-13T01:26:12;19.30;74.30
13093;DHT22;6612;49.568;11.000;2023-10-13T01:28:42;19.30;74.00
13093;DHT22;6612;49.568;11.000;2023-10-13T01:31:13;19.30;74.10
13093;DHT22;6612;49.568;11.000;2023-10-13T01:33:50;19.30;74.20
13093;DHT22;6612;49.568;11.000;2023-10-13T01:36:23;19.30;74.20
13093;DHT22;6612;49.568;11.000;2023-10-13T01:38:51;19.20;74.30
13093;DHT22;6612;49.568;11.000;2023-10-13T01:41:18;19.20;74.40
13093;DHT22;6612;49.568;11.000;2023-10-13T01:43:46;19.20;74.40
13093;DHT22;6612;49.568;11.000;2023-10-13T01:46:12;19.20;74.50
13093;DHT22;6612;49.568;11.000;2023-10-13T01:48:41;19.20;74.60
13093;DHT22;6612;49.568;11.000;2023-10-13T01:51:09;19.20;74.70
13093;DHT22;6612;49.568;11.000;2023-10-13T01:53:37;19.20;74.80
13093;DHT22;6612;49.568;11.000;2023-10-13T01:56:05;19.20;74.70
13093;DHT22;6612;49.568;11.000;2023-10-13T01:58:37;19.20;74.80
13093;DHT22;6612;49.568;11.000;2023-10-13T02:01:03;19.20;74.50
13093;DHT22;6612;49.568;11.000;2023-10-13T02:03:33;19.20;74.50
13093;DHT22;6612;49.568;11.000;2023-10-13T02:05:59;19.20;74.40
13093;DHT22;6612;49.568;11.000;2023-10-13T02:08:30;19.10;74.30
13093;DHT22;6612;49.568;11.000;2023-10-13T02:10:57;19.10;74.30
13093;DHT22;6612;49.568;11.000;2023-10-13T02:13:28;19.10;74.30
13093;DHT22;6612;49.568;11.000;2023-10-13T02:15:57;19.10;74.30
13093;DHT22;6612;49.568;11.000;2023-10-13T02:18:28;19.10;74.30
13093;DHT22;6612;49.568;11.000;2023-10-13T02:21:04;19.10;74.20
13093;DHT22;6612;49.568;11.000;2023-10-13T02:23:31;19.00;74.40
13093;DHT22;6612;49.568;11.000;2023-10-13T02:25:59;19.00;74.10
13093;DHT22;6612;49.568;11.000;2023-10-13T02:28:30;19.00;74.20
13093;DHT22;6612;49.568;11.000;2023-10-13T02:31:01;19.00;74.50
13093;DHT22;6612;49.568;11.000;2023-10-13T02:33:29;19.00;74.60
13093;DHT22;6612;49.568;11.000;2023-10-13T02:35:56;18.90;74.50
13093;DHT22;6612;49.568;11.000;2023-10-13T02:38:23;18.90;74.80
13093;DHT22;6612;49.568;11.000;2023-10-13T02:40:58;18.90;75.10
13093;DHT22;6612;49.568;11.000;2023-10-13T02:43:33;18.90;75.20
13093;DHT22;6612;49.568;11.000;2023-10-13T02:45:59;19.00;75.80
13093;DHT22;6612;49.568;11.000;2023-10-13T02:48:28;19.00;75.70
13093;DHT22;6612;49.568;11.000;2023-10-13T02:50:57;19.00;75.80
13093;DHT22;6612;49.568;11.000;2023-10-13T02:53:28;19.00;75.90
13093;DHT22;6612;49.568;11.000;2023-10-13T02:55:55;19.00;75.90
13093;DHT22;6612;49.568;11.000;2023-10-13T02:58:23;19.00;76.00
13093;DHT22;6612;49.568;11.000;2023-10-13T03:01:06;19.10;76.20
13093;DHT22;6612;49.568;11.000;2023-10-13T03:03:43;19.10;77.20
13093;DHT22;6612;49.568;11.000;2023-10-13T03:06:14;19.10;76.30
13093;DHT22;6612;49.568;11.000;2023-10-13T03:08:40;19.10;76.30
13093;DHT22;6612;49.568;11.000;2023-10-13T03:11:09;19.20;76.40
13093;DHT22;6612;49.568;11.000;2023-10-13T03:13:35;19.20;76.40
13093;DHT22;6612;49.568;11.000;2023-10-13T03:16:11;19.20;76.30
13093;DHT22;6612;49.568;11.000;2023-10-13T03:18:37;19.20;76.70
13093;DHT22;6612;49.568;11.000;2023-10-13T03:21:04;19.20;76.20
13093;DHT22;6612;49.568;11.000;2023-10-13T03:23:30;19.20;76.30
13093;DHT22;6612;49.568;11.000;2023-10-13T03:26:09;19.20;76.30
13093;DHT22;6612;49.568;11.000;2023-10-13T03:28:35;19.30;76.50
13093;DHT22;6612;49.568;11.000;2023-10-13T03:31:04;19.30;76.40
13093;DHT22;6612;49.568;11.000;2023-10-13T03:33:31;19.30;76.30
13093;DHT22;6612;49.568;11.000;2023-10-13T03:35:58;19.30;76.30
13093;DHT22;6612;49.568;11.000;2023-10-13T03:38:31;19.30;76.20
13093;DHT22;6612;49.568;11.000;2023-10-13T03:41:02;19.30;76.20
13093;DHT22;6612;49.568;11.000;2023-10-13T03:43:37;19.30;75.90
13093;DHT22;6612;49.568;11.000;2023-10-13T03:46:16;19.40;75.80
13093;DHT22;6612;49.568;11.000;2023-10-13T03:48:48;19.40;75.60
13093;DHT22;6612;49.568;11.000;2023-10-13T03:51:23;19.30;75.40
13093;DHT22;6612;49.568;11.000;2023-10-13T03:53:56;19.30;75.30
13093;DHT22;6612;49.568;11.000;2023-10-13T03:56:24;19.30;75.30
13093;DHT22;6612;49.568;11.000;2023-10-13T03:59:04;19.30;75.40
13093;DHT22;6612;49.568;11.000;2023-10-13T04:01:32;19.30;75.50
13093;DHT22;6612;49.568;11.000;2023-10-13T04:04:11;19.30;75.50
13093;DHT22;6612;49.568;11.000;2023-10-13T04:06:38;19.30;75.70
13093;DHT22;6612;49.568;11.000;2023-10-13T04:09:22;19.30;75.80
13093;DHT22;6612;49.568;11.000;2023-10-13T04:12:36;19.30;75.70
13093;DHT22;6612;49.568;11.000;2023-10-13T04:15:20;19.30;75.30
13093;DHT22;6612;49.568;11.000;2023-10-13T04:17:53;19.30;75.00
13093;DHT22;6612;49.568;11.000;2023-10-13T04:20:21;19.30;75.00
13093;DHT22;6612;49.568;11.000;2023-10-13T04:22:58;19.20;74.80
13093;DHT22;6612;49.568;11.000;2023-10-13T04:25:43;19.20;74.80
13093;DHT22;6612;49.568;11.000;2023-10-13T04:28:26;19.20;74.90
13093;DHT22;6612;49.568;11.000;2023-10-13T04:31:03;19.10;75.00
13093;DHT22;6612;49.568;11.000;2023-10-13T04:33:50;19.10;75.20
13093;DHT22;6612;49.568;11.000;2023-10-13T04:36:19;19.10;75.30
13093;DHT22;6612;49.568;11.000;2023-10-13T04:39:10;19.10;75.40
13093;DHT22;6612;49.568;11.000;2023-10-13T04:41:42;19.10;75.10
13093;DHT22;6612;49.568;11.000;2023-10-13T04:44:09;19.10;74.90
13093;DHT22;6612;49.568;11.000;2023-10-13T04:46:50;19.10;74.80
13093;DHT22;6612;49.568;11.000;2023-10-13T04:49:43;19.00;74.60
13093;DHT22;6612;49.568;11.000;2023-10-13T04:52:19;19.00;74.80
13093;DHT22;6612;49.568;11.000;2023-10-13T04:55:14;19.00;75.00
13093;DHT22;6612;49.568;11.000;2023-10-13T04:57:59;18.90;75.00
13093;DHT22;6612;49.568;11.000;2023-10-13T05:00:37;18.90;75.40
13093;DHT22;6612;49.568;11.000;2023-10-13T05:03:21;18.90;75.60
13093;DHT22;6612;49.568;11.000;2023-10-13T05:06:18;18.90;75.70
13093;DHT22;6612;49.568;11.000;2023-10-13T05:09:04;19.00;75.70
13093;DHT22;6612;49.568;11.000;2023-10-13T05:11:48;19.00;75.80
13093;DHT22;6612;49.568;11.000;2023-10-13T05:14:32;19.00;75.60
13093;DHT22;6612;49.568;11.000;2023-10-13T05:17:16;19.00;75.70
13093;DHT22;6612;49.568;11.000;2023-10-13T05:20:00;19.00;75.70
13093;DHT22;6612;49.568;11.000;2023-10-13T05:22:44;19.00;75.70
13093;DHT22;6612;49.568;11.000;2023-10-13T05:25:30;19.00;75.80
13093;DHT22;6612;49.568;11.000;2023-10-13T05:28:18;19.00;75.90
13093;DHT22;6612;49.568;11.000;2023-10-13T05:31:02;19.00;75.50
13093;DHT22;6612;49.568;11.000;2023-10-13T05:33:47;19.00;75.20
13093;DHT22;6612;49.568;11.000;2023-10-13T05:36:31;19.00;75.00
13093;DHT22;6612;49.568;11.000;2023-10-13T05:39:15;19.00;75.10
13093;DHT22;6612;49.568;11.000;2023-10-13T05:42:01;19.00;75.40
13093;DHT22;6612;49.568;11.000;2023-10-13T05:44:45;19.00;75.60
13093;DHT22;6612;49.568;11.000;2023-10-13T05:47:42;19.00;75.50
13093;DHT22;6612;49.568;11.000;2023-10-13T05:50:26;19.00;75.50
13093;DHT22;6612;49.568;11.000;2023-10-13T05:53:15;19.00;75.60
13093;DHT22;6612;49.568;11.000;2023-10-13T05:56:04;19.00;75.70
13093;DHT22;6612;49.568;11.000;2023-10-13T05:58:49;19.10;76.00
13093;DHT22;6612;49.568;11.000;2023-10-13T06:01:34;19.10;75.90
13093;DHT22;6612;49.568;11.000;2023-10-13T06:04:17;19.10;76.00
13093;DHT22;6612;49.568;11.000;2023-10-13T06:07:01;19.10;76.00
13093;DHT22;6612;49.568;11.000;2023-10-13T06:09:46;19.10;75.90
13093;DHT22;6612;49.568;11.000;2023-10-13T06:12:30;19.20;76.10
13093;DHT22;6612;49.568;11.000;2023-10-13T06:15:15;19.20;76.10
13093;DHT22;6612;49.568;11.000;2023-10-13T06:17:59;19.20;76.10
13093;DHT22;6612;49.568;11.000;2023-10-13T06:20:43;19.20;76.20
13093;DHT22;6612;49.568;11.000;2023-10-13T06:23:27;19.30;76.20
13093;DHT22;6612;49.568;11.000;2023-10-13T06:26:08;19.30;76.20
13093;DHT22;6612;49.568;11.000;2023-10-13T06:28:52;19.40;76.50
13093;DHT22;6612;49.568;11.000;2023-10-13T06:31:20;19.40;76.50
13093;DHT22;6612;49.568;11.000;2023-10-13T06:33:51;19.50;76.30
13093;DHT22;6612;49.568;11.000;2023-10-13T06:36:21;19.60;76.50
13093;DHT22;6612;49.568;11.000;2023-10-13T06:38:48;19.60;76.70
13093;DHT22;6612;49.568;11.000;2023-10-13T06:41:20;19.70;76.70
13093;DHT22;6612;49.568;11.000;2023-10-13T06:43:56;19.70;76.50
13093;DHT22;6612;49.568;11.000;2023-10-13T06:46:29;19.80;76.40
13093;DHT22;6612;49.568;11.000;2023-10-13T06:48:59;19.90;76.70
13093;DHT22;6612;49.568;11.000;2023-10-13T06:51:28;20.00;77.40
13093;DHT22;6612;49.568;11.000;2023-10-13T06:54:04;20.20;78.80
13093;DHT22;6612;49.568;11.000;2023-10-13T06:56:36;20.50;80.20
13093;DHT22;6612;49.568;11.000;2023-10-13T06:59:05;20.90;80.40
13093;DHT22;6612;49.568;11.000;2023-10-13T07:01:33;21.30;80.50
13093;DHT22;6612;49.568;11.000;2023-10-13T07:04:05;21.60;80.10
13093;DHT22;6612;49.568;11.000;2023-10-13T07:06:39;22.10;80.20
13093;DHT22;6612;49.568;11.000;2023-10-13T07:09:08;22.60;80.10
13093;DHT22;6612;49.568;11.000;2023-10-13T07:11:44;22.90;78.90
13093;DHT22;6612;49.568;11.000;2023-10-13T07:14:16;23.40;78.00
13093;DHT22;6612;49.568;11.000;2023-10-13T07:16:56;23.80;76.00
13093;DHT22;6612;49.568;11.000;2023-10-13T07:19:24;24.30;74.30
13093;DHT22;6612;49.568;11.000;2023-10-13T07:21:54;24.70;74.30
13093;DHT22;6612;49.568;11.000;2023-10-13T07:24:24;25.10;72.90
13093;DHT22;6612;49.568;11.000;2023-10-13T07:26:52;25.50;72.90
13093;DHT22;6612;49.568;11.000;2023-10-13T07:29:29;25.80;70.00
13093;DHT22;6612;49.568;11.000;2023-10-13T07:31:57;26.00;67.80
13093;DHT22;6612;49.568;11.000;2023-10-13T07:34:24;26.20;66.10
13093;DHT22;6612;49.568;11.000;2023-10-13T07:36:53;26.30;64.60
13093;DHT22;6612;49.568;11.000;2023-10-13T07:39:25;26.30;62.70
13093;DHT22;6612;49.568;11.000;2023-10-13T07:41:53;26.40;62.50
13093;DHT22;6612;49.568;11.000;2023-10-13T07:44:29;26.40;60.80
13093;DHT22;6612;49.568;11.000;2023-10-13T07:47:00;26.40;61.80
13093;DHT22;6612;49.568;11.000;2023-10-13T07:49:30;26.50;61.20
13093;DHT22;6612;49.568;11.000;2023-10-13T07:52:01;26.50;61.40
13093;DHT22;6612;49.568;11.000;2023-10-13T07:54:43;26.60;59.70
13093;DHT22;6612;49.568;11.000;2023-10-13T07:57:13;26.50;59.70
13093;DHT22;6612;49.568;11.000;2023-10-13T07:59:41;26.40;59.30
13093;DHT22;6612;49.568;11.000;2023-10-13T08:02:15;26.30;59.00
13093;DHT22;6612;49.568;11.000;2023-10-13T08:05:02;26.20;58.80
13093;DHT22;6612;49.568;11.000;2023-10-13T08:07:30;26.00;59.00
13093;DHT22;6612;49.568;11.000;2023-10-13T08:09:57;25.90;59.20
13093;DHT22;6612;49.568;11.000;2023-10-13T08:12:25;25.90;58.70
13093;DHT22;6612;49.568;11.000;2023-10-13T08:14:53;25.90;58.80
13093;DHT22;6612;49.568;11.000;2023-10-13T08:17:39;26.00;59.00
13093;DHT22;6612;49.568;11.000;2023-10-13T08:20:10;25.90;57.70
13093;DHT22;6612;49.568;11.000;2023-10-13T08:22:38;25.90;57.10
13093;DHT22;6612;49.568;11.000;2023-10-13T08:25:12;25.80;56.60
13093;DHT22;6612;49.568;11.000;2023-10-13T08:27:50;25.60;56.90
13093;DHT22;6612;49.568;11.000;2023-10-13T08:30:31;25.50;57.00
13093;DHT22;6612;49.568;11.000;2023-10-13T08:33:09;25.30;56.90
13093;DHT22;6612;49.568;11.000;2023-10-13T08:35:42;25.20;57.00
13093;DHT22;6612;49.568;11.000;2023-10-13T08:38:20;25.00;57.20
13093;DHT22;6612;49.568;11.000;2023-10-13T08:40:58;24.90;57.00
13093;DHT22;6612;49.568;11.000;2023-10-13T08:43:43;24.70;56.80
13093;DHT22;6612;49.568;11.000;2023-10-13T08:46:16;24.60;57.10
13093;DHT22;6612;49.568;11.000;2023-10-13T08:48:57;24.50;57.10
13093;DHT22;6612;49.568;11.000;2023-10-13T08:51:39;24.40;57.00
13093;DHT22;6612;49.568;11.000;2023-10-13T08:54:14;24.40;57.70
13093;DHT22;6612;49.568;11.000;2023-10-13T08:57:00;24.30;57.10
13093;DHT22;6612;49.568;11.000;2023-10-13T08:59:45;24.30;57.60
13093;DHT22;6612;49.568;11.000;2023-10-13T09:02:21;24.20;57.60
13093;DHT22;6612;49.568;11.000;2023-10-13T09:04:49;24.20;57.40
13093;DHT22;6612;49.568;11.000;2023-10-13T09:07:25;24.20;57.40
13093;DHT22;6612;49.568;11.000;2023-10-13T09:09:51;24.20;58.00
13093;DHT22;6612;49.568;11.000;2023-10-13T09:12:37;24.20;57.80
13093;DHT22;6612;49.568;11.000;2023-10-13T09:15:07;24.20;57.80
13093;DHT22;6612;49.568;11.000;2023-10-13T09:17:46;24.10;57.60
13093;DHT22;6612;49.568;11.000;2023-10-13T09:20:28;24.10;57.40
13093;DHT22;6612;49.568;11.000;2023-10-13T09:23:09;24.10;57.00
13093;DHT22;6612;49.568;11.000;2023-10-13T09:25:37;24.00;57.80
13093;DHT22;6612;49.568;11.000;2023-10-13T09:28:11;24.00;58.30
13093;DHT22;6612;49.568;11.000;2023-10-13T09:30:44;24.10;58.70
13093;DHT22;6612;49.568;11.000;2023-10-13T09:33:10;24.20;59.20
13093;DHT22;6612;49.568;11.000;2023-10-13T09:35:44;24.30;59.90
13093;DHT22;6612;49.568;11.000;2023-10-13T09:38:15;24.40;59.40
13093;DHT22;6612;49.568;11.000;2023-10-13T09:40:43;24.50;59.50
13093;DHT22;6612;49.568;11.000;2023-10-13T09:43:16;24.60;59.10
13093;DHT22;6612;49.568;11.000;2023-10-13T09:45:46;24.70;58.80
13093;DHT22;6612;49.568;11.000;2023-10-13T09:48:33;24.80;58.40
13093;DHT22;6612;49.568;11.000;2023-10-13T09:51:03;24.90;58.60
13093;DHT22;6612;49.568;11.000;2023-10-13T09:53:31;25.00;58.60
13093;DHT22;6612;49.568;11.000;2023-10-13T09:56:03;25.10;58.50
13093;DHT22;6612;49.568;11.000;2023-10-13T09:58:48;25.20;58.10
13093;DHT22;6612;49.568;11.000;2023-10-13T10:01:22;25.20;57.70
13093;DHT22;6612;49.568;11.000;2023-10-13T10:04:07;25.30;57.50
13093;DHT22;6612;49.568;11.000;2023-10-13T10:06:36;25.40;56.40
13093;DHT22;6612;49.568;11.000;2023-10-13T10:09:07;25.50;56.90
13093;DHT22;6612;49.568;11.000;2023-10-13T10:12:16;25.50;57.10
13093;DHT22;6612;49.568;11.000;2023-10-13T10:15:06;25.60;56.00
13093;DHT22;6612;49.568;11.000;2023-10-13T10:17:41;25.70;56.10
13093;DHT22;6612;49.568;11.000;2023-10-13T10:20:08;25.80;56.70
13093;DHT22;6612;49.568;11.000;2023-10-13T10:22:55;25.90;57.10
13093;DHT22;6612;49.568;11.000;2023-10-13T10:25:29;26.00;56.00
13093;DHT22;6612;49.568;11.000;2023-10-13T10:28:01;26.10;55.70
13093;DHT22;6612;49.568;11.000;2023-10-13T10:30:32;26.20;56.30
13093;DHT22;6612;49.568;11.000;2023-10-13T10:33:00;26.30;56.00
13093;DHT22;6612;49.568;11.000;2023-10-13T10:35:33;26.40;56.20
13093;DHT22;6612;49.568;11.000;2023-10-13T10:38:10;26.60;56.40
13093;DHT22;6612;49.568;11.000;2023-10-13T10:40:49;26.70;55.10
13093;DHT22;6612;49.568;11.000;2023-10-13T10:43:18;26.80;54.60
13093;DHT22;6612;49.568;11.000;2023-10-13T10:45:46;26.90;55.00
13093;DHT22;6612;49.568;11.000;2023-10-13T10:48:15;26.90;54.20
13093;DHT22;6612;49.568;11.000;2023-10-13T10:50:51;26.90;54.00
13093;DHT22;6612;49.568;11.000;2023-10-13T10:53:21;26.90;53.40
13093;DHT22;6612;49.568;11.000;2023-10-13T10:56:04;26.90;54.00
13093;DHT22;6612;49.568;11.000;2023-10-13T10:58:34;26.90;53.70
13093;DHT22;6612;49.568;11.000;2023-10-13T11:01:09;26.90;53.80
13093;DHT22;6612;49.568;11.000;2023-10-13T11:03:38;26.90;53.20
13093;DHT22;6612;49.568;11.000;2023-10-13T11:06:11;26.90;52.60
13093;DHT22;6612;49.568;11.000;2023-10-13T11:08:44;26.90;52.00
13093;DHT22;6612;49.568;11.000;2023-10-13T11:11:27;26.90;52.50
13093;DHT22;6612;49.568;11.000;2023-10-13T11:13:56;26.90;51.90
13093;DHT22;6612;49.568;11.000;2023-10-13T11:16:45;26.90;51.10
13093;DHT22;6612;49.568;11.000;2023-10-13T11:19:16;26.90;49.90
13093;DHT22;6612;49.568;11.000;2023-10-13T11:21:46;26.90;50.90
13093;DHT22;6612;49.568;11.000;2023-10-13T11:24:15;26.90;50.40
13093;DHT22;6612;49.568;11.000;2023-10-13T11:26:43;26.90;49.80
13093;DHT22;6612;49.568;11.000;2023-10-13T11:29:16;26.90;49.60
13093;DHT22;6612;49.568;11.000;2023-10-13T11:31:45;26.90;49.10
13093;DHT22;6612;49.568;11.000;2023-10-13T11:34:16;27.00;49.00
13093;DHT22;6612;49.568;11.000;2023-10-13T11:36:43;27.00;49.00
13093;DHT22;6612;49.568;11.000;2023-10-13T11:39:10;27.00;48.90
13093;DHT22;6612;49.568;11.000;2023-10-13T11:41:44;27.00;48.60
13093;DHT22;6612;49.568;11.000;2023-10-13T11:44:20;27.00;48.30
13093;DHT22;6612;49.568;11.000;2023-10-13T11:46:57;27.00;47.90
13093;DHT22;6612;49.568;11.000;2023-10-13T11:49:41;27.00;47.70
13093;DHT22;6612;49.568;11.000;2023-10-13T11:52:07;27.00;48.10
13093;DHT22;6612;49.568;11.000;2023-10-13T11:54:43;27.00;48.10
13093;DHT22;6612;49.568;11.000;2023-10-13T11:57:13;27.00;48.10
13093;DHT22;6612;49.568;11.000;2023-10-13T11:59:44;27.10;48.00
13093;DHT22;6612;49.568;11.000;2023-10-13T12:02:19;27.10;48.80
13093;DHT22;6612;49.568;11.000;2023-10-13T12:05:05;27.10;48.00
13093;DHT22;6612;49.568;11.000;2023-10-13T12:07:37;27.10;47.80
13093;DHT22;6612;49.568;11.000;2023-10-13T12:10:13;27.10;47.50
13093;DHT22;6612;49.568;11.000;2023-10-13T12:13:00;27.10;47.70
13093;DHT22;6612;49.568;11.000;2023-10-13T12:15:32;27.10;48.30
13093;DHT22;6612;49.568;11.000;2023-10-13T12:18:14;27.10;47.40
13093;DHT22;6612;49.568;11.000;2023-10-13T12:20:41;27.20;47.40
13093;DHT22;6612;49.568;11.000;2023-10-13T12:23:11;27.20;47.50
13093;DHT22;6612;49.568;11.000;2023-10-13T12:25:43;27.20;47.10
13093;DHT22;6612;49.568;11.000;2023-10-13T12:28:27;27.20;47.50
13093;DHT22;6612;49.568;11.000;2023-10-13T12:30:55;27.20;46.80
13093;DHT22;6612;49.568;11.000;2023-10-13T12:33:24;27.20;47.50
13093;DHT22;6612;49.568;11.000;2023-10-13T12:35:56;27.20;46.70
13093;DHT22;6612;49.568;11.000;2023-10-13T12:38:56;27.20;46.10
13093;DHT22;6612;49.568;11.000;2023-10-13T12:41:40;27.20;46.20
13093;DHT22;6612;49.568;11.000;2023-10-13T12:44:25;27.20;46.20
13093;DHT22;6612;49.568;11.000;2023-10-13T12:47:09;27.20;45.90
13093;DHT22;6612;49.568;11.000;2023-10-13T12:49:54;27.20;46.20
13093;DHT22;6612;49.568;11.000;2023-10-13T12:52:33;27.20;46.00
13093;DHT22;6612;49.568;11.000;2023-10-13T12:55:00;27.20;45.70
13093;DHT22;6612;49.568;11.000;2023-10-13T12:57:35;27.20;45.70
13093;DHT22;6612;49.568;11.000;2023-10-13T13:00:11;27.20;45.80
13093;DHT22;6612;49.568;11.000;2023-10-13T13:02:51;27.20;45.40
13093;DHT22;6612;49.568;11.000;2023-10-13T13:05:21;27.20;45.70
13093;DHT22;6612;49.568;11.000;2023-10-13T13:07:54;27.20;45.70
13093;DHT22;6612;49.568;11.000;2023-10-13T13:10:21;27.20;45.60
13093;DHT22;6612;49.568;11.000;2023-10-13T13:13:02;27.20;45.80
13093;DHT22;6612;49.568;11.000;2023-10-13T13:15:30;27.30;45.70
13093;DHT22;6612;49.568;11.000;2023-10-13T13:17:57;27.30;45.30
13093;DHT22;6612;49.568;11.000;2023-10-13T13:20:35;27.30;45.40
13093;DHT22;6612;49.568;11.000;2023-10-13T13:23:05;27.40;45.40
13093;DHT22;6612;49.568;11.000;2023-10-13T13:25:32;27.40;45.10
13093;DHT22;6612;49.568;11.000;2023-10-13T13:28:00;27.50;45.20
13093;DHT22;6612;49.568;11.000;2023-10-13T13:30:32;27.50;45.20
13093;DHT22;6612;49.568;11.000;2023-10-13T13:33:00;27.60;44.90
13093;DHT22;6612;49.568;11.000;2023-10-13T13:35:36;27.60;44.90
13093;DHT22;6612;49.568;11.000;2023-10-13T13:38:03;27.60;45.50
13093;DHT22;6612;49.568;11.000;2023-10-13T13:40:37;27.70;44.40
13093;DHT22;6612;49.568;11.000;2023-10-13T13:43:04;27.70;43.90
13093;DHT22;6612;49.568;11.000;2023-10-13T13:45:33;27.70;44.10
13093;DHT22;6612;49.568;11.000;2023-10-13T13:48:07;27.70;43.80
13093;DHT22;6612;49.568;11.000;2023-10-13T13:50:41;27.70;44.10
13093;DHT22;6612;49.568;11.000;2023-10-13T13:53:10;27.80;44.30
13093;DHT22;6612;49.568;11.000;2023-10-13T13:55:37;27.80;43.70
13093;DHT22;6612;49.568;11.000;2023-10-13T13:58:05;27.80;43.70
13093;DHT22;6612;49.568;11.000;2023-10-13T14:00:37;27.80;43.90
13093;DHT22;6612;49.568;11.000;2023-10-13T14:03:08;27.80;43.30
13093;DHT22;6612;49.568;11.000;2023-10-13T14:05:49;27.80;43.30
13093;DHT22;6612;49.568;11.000;2023-10-13T14:08:16;27.80;43.40
13093;DHT22;6612;49.568;11.000;2023-10-13T14:10:43;27.80;43.30
13093;DHT22;6612;49.568;11.000;2023-10-13T14:13:24;27.80;43.10
13093;DHT22;6612;49.568;11.000;2023-10-13T14:16:12;27.80;43.00
13093;DHT22;6612;49.568;11.000;2023-10-13T14:18:43;27.80;42.80
13093;DHT22;6612;49.568;11.000;2023-10-13T14:21:10;27.80;42.90
13093;DHT22;6612;49.568;11.000;2023-10-13T14:23:43;27.70;42.70
13093;DHT22;6612;49.568;11.000;2023-10-13T14:26:12;27.70;42.50
13093;DHT22;6612;49.568;11.000;2023-10-13T14:28:39;27.80;42.60
13093;DHT22;6612;49.568;11.000;2023-10-13T14:31:18;27.70;42.60
13093;DHT22;6612;49.568;11.000;2023-10-13T14:33:46;27.70;42.30
13093;DHT22;6612;49.568;11.000;2023-10-13T14:36:14;27.70;42.10
13093;DHT22;6612;49.568;11.000;2023-10-13T14:38:46;27.70;42.30
13093;DHT22;6612;49.568;11.000;2023-10-13T14:41:15;27.70;42.30
13093;DHT22;6612;49.568;11.000;2023-10-13T14:43:43;27.70;42.30
13093;DHT22;6612;49.568;11.000;2023-10-13T14:46:14;27.60;42.20
13093;DHT22;6612;49.568;11.000;2023-10-13T14:48:43;27.70;42.30
13093;DHT22;6612;49.568;11.000;2023-10-13T14:51:10;27.60;42.00
13093;DHT22;6612;49.568;11.000;2023-10-13T14:53:39;27.60;42.30
13093;DHT22;6612;49.568;11.000;2023-10-13T14:56:10;27.60;42.10
13093;DHT22;6612;49.568;11.000;2023-10-13T14:58:37;27.60;42.10
13093;DHT22;6612;49.568;11.000;2023-10-13T15:01:11;27.60;42.10
13093;DHT22;6612;49.568;11.000;2023-10-13T15:03:42;27.50;41.90
13093;DHT22;6612;49.568;11.000;2023-10-13T15:06:15;27.50;41.90
13093;DHT22;6612;49.568;11.000;2023-10-13T15:08:43;27.50;41.50
13093;DHT22;6612;49.568;11.000;2023-10-13T15:11:11;27.40;41.80
13093;DHT22;6612;49.568;11.000;2023-10-13T15:13:39;27.40;41.80
13093;DHT22;6612;49.568;11.000;2023-10-13T15:16:13;27.30;41.80
13093;DHT22;6612;49.568;11.000;2023-10-13T15:18:44;27.30;41.30
13093;DHT22;6612;49.568;11.000;2023-10-13T15:21:11;27.20;41.70
13093;DHT22;6612;49.568;11.000;2023-10-13T15:23:39;27.20;41.80
13093;DHT22;6612;49.568;11.000;2023-10-13T15:26:09;27.20;42.00
13093;DHT22;6612;49.568;11.000;2023-10-13T15:28:38;27.20;42.00
13093;DHT22;6612;49.568;11.000;2023-10-13T15:31:14;27.20;41.90
13093;DHT22;6612;49.568;11.000;2023-10-13T15:33:55;27.10;41.90
13093;DHT22;6612;49.568;11.000;2023-10-13T15:36:22;27.10;41.70
13093;DHT22;6612;49.568;11.000;2023-10-13T15:38:50;27.00;42.00
13093;DHT22;6612;49.568;11.000;2023-10-13T15:41:24;27.00;42.10
13093;DHT22;6612;49.568;11.000;2023-10-13T15:43:51;27.00;41.80
13093;DHT22;6612;49.568;11.000;2023-10-13T15:46:21;26.90;42.30
13093;DHT22;6612;49.568;11.000;2023-10-13T15:48:48;26.90;42.40
13093;DHT22;6612;49.568;11.000;2023-10-13T15:51:16;26.90;42.40
13093;DHT22;6612;49.568;11.000;2023-10-13T15:53:44;26.90;42.40
13093;DHT22;6612;49.568;11.000;2023-10-13T15:56:13;26.80;42.50
13093;DHT22;6612;49.568;11.000;2023-10-13T15:58:41;26.80;42.40
13093;DHT22;6612;49.568;11.000;2023-10-13T16:01:09;26.70;42.50
13093;DHT22;6612;49.568;11.000;2023-10-13T16:03:38;26.70;42.70
13093;DHT22;6612;49.568;11.000;2023-10-13T16:06:06;26.60;42.70
13093;DHT22;6612;49.568;11.000;2023-10-13T16:08:38;26.60;42.50
13093;DHT22;6612;49.568;11.000;2023-10-13T16:11:09;26.50;42.60